Time,TemperatureF,DewpointF,PressureIn,WindDirection,WindDirectionDegrees,WindSpeedMPH,WindSpeedGustMPH,Humidity,HourlyPrecipIn,Conditions,Clouds,dailyrainin,SoftwareType,DateUTC
2013-06-02 00:14:00,74.5,67.0,30.04,ESE,119,3.0,5.0,77,0.00,,,0.00,weatherlink.com 1.10,2013-06-02 04:14:00,
2013-06-02 00:29:00,74.3,67.0,30.03,ESE,120,2.0,4.0,78,0.00,,,0.00,weatherlink.com 1.10,2013-06-02 04:29:00,
2013-06-02 00:44:00,74.0,67.0,30.03,ESE,122,2.0,4.0,78,0.00,,,0.00,weatherlink.com 1.10,2013-06-02 04:44:00,
2013-06-02 00:59:00,73.6,67.0,30.02,SE,136,0.0,3.0,79,0.00,,,0.00,weatherlink.com 1.10,2013-06-02 04:59:00,
2013-06-02 01:14:00,73.2,66.0,30.02,ESE,118,0.0,5.0,79,0.00,,,0.00,weatherlink.com 1.10,2013-06-02 05:14:00,
2013-06-02 01:29:00,72.8,66.0,30.02,ESE,114,2.0,4.0,80,0.00,,,0.00,weatherlink.com 1.10,2013-06-02 05:29:00,
2013-06-02 01:44:00,72.5,66.0,30.01,South,171,1.0,3.0,81,0.00,,,0.00,weatherlink.com 1.10,2013-06-02 05:44:00,
2013-06-02 01:59:00,72.1,66.0,30.01,SE,127,1.0,4.0,82,0.00,,,0.00,weatherlink.com 1.10,2013-06-02 05:59:00,
2013-06-02 02:14:00,71.7,66.0,30.01,ESE,117,1.0,6.0,83,0.00,,,0.00,weatherlink.com 1.10,2013-06-02 06:14:00,
2013-06-02 02:29:00,71.5,67.0,30.00,SSE,148,1.0,3.0,84,0.00,,,0.00,weatherlink.com 1.10,2013-06-02 06:29:00,
2013-06-02 02:44:00,71.3,67.0,29.99,ESE,112,0.0,4.0,85,0.00,,,0.00,weatherlink.com 1.10,2013-06-02 06:44:00,
2013-06-02 02:59:00,70.9,67.0,29.98,ESE,117,1.0,4.0,86,0.00,,,0.00,weatherlink.com 1.10,2013-06-02 06:59:00,
2013-06-02 03:14:00,70.6,67.0,29.98,ESE,106,0.0,3.0,87,0.00,,,0.00,weatherlink.com 1.10,2013-06-02 07:14:00,
2013-06-02 03:29:00,70.2,67.0,29.97,ESE,115,0.0,5.0,88,0.00,,,0.00,weatherlink.com 1.10,2013-06-02 07:29:00,
2013-06-02 03:44:00,69.9,67.0,29.97,SE,138,1.0,3.0,89,0.00,,,0.00,weatherlink.com 1.10,2013-06-02 07:44:00,
2013-06-02 03:59:00,69.7,67.0,29.97,ESE,121,1.0,4.0,90,0.00,,,0.00,weatherlink.com 1.10,2013-06-02 07:59:00,
2013-06-02 04:14:00,69.5,67.0,29.98,South,177,1.0,4.0,91,0.00,,,0.00,weatherlink.com 1.10,2013-06-02 08:14:00,
2013-06-02 04:29:00,69.3,67.0,29.98,SSE,156,0.0,4.0,91,0.00,,,0.00,weatherlink.com 1.10,2013-06-02 08:29:00,
2013-06-02 04:44:00,69.0,67.0,29.98,SE,144,1.0,3.0,92,0.00,,,0.00,weatherlink.com 1.10,2013-06-02 08:44:00,
2013-06-02 04:59:00,69.1,67.0,29.99,ESE,122,3.0,4.0,92,0.00,,,0.00,weatherlink.com 1.10,2013-06-02 08:59:00,
2013-06-02 05:14:00,69.4,67.0,29.99,SSW,193,1.0,4.0,92,0.00,,,0.00,weatherlink.com 1.10,2013-06-02 09:14:00,
2013-06-02 05:29:00,69.6,67.0,29.98,ESE,116,0.0,5.0,92,0.00,,,0.00,weatherlink.com 1.10,2013-06-02 09:29:00,
2013-06-02 05:44:00,69.7,67.0,29.98,ESE,114,2.0,7.0,92,0.00,,,0.00,weatherlink.com 1.10,2013-06-02 09:44:00,
2013-06-02 05:59:00,69.7,67.0,29.98,SSE,161,1.0,8.0,92,0.00,,,0.00,weatherlink.com 1.10,2013-06-02 09:59:00,
2013-06-02 06:14:00,69.8,67.0,29.98,SSE,150,0.0,4.0,92,0.00,,,0.00,weatherlink.com 1.10,2013-06-02 10:14:00,
2013-06-02 06:30:00,69.8,67.0,29.98,SE,142,0.0,4.0,92,0.00,,,0.00,weatherlink.com 1.10,2013-06-02 10:30:00,
2013-06-02 06:45:00,70.0,68.0,29.99,ESE,103,1.0,6.0,92,0.00,,,0.00,weatherlink.com 1.10,2013-06-02 10:45:00,
2013-06-02 07:00:00,70.2,68.0,29.99,SSE,155,0.0,9.0,91,0.00,,,0.00,weatherlink.com 1.10,2013-06-02 11:00:00,
2013-06-02 07:15:00,70.4,67.0,29.99,SE,129,2.0,8.0,90,0.00,,,0.00,weatherlink.com 1.10,2013-06-02 11:15:00,
2013-06-02 07:30:00,70.4,67.0,29.99,WSW,254,0.0,5.0,90,0.00,,,0.00,weatherlink.com 1.10,2013-06-02 11:30:00,
2013-06-02 07:45:00,70.5,68.0,30.00,SSW,202,1.0,3.0,90,0.00,,,0.00,weatherlink.com 1.10,2013-06-02 11:45:00,
2013-06-02 08:00:00,70.8,68.0,29.99,ESE,117,3.0,5.0,89,0.00,,,0.00,weatherlink.com 1.10,2013-06-02 12:00:00,
2013-06-02 08:15:00,71.2,68.0,29.99,SW,226,1.0,7.0,89,0.00,,,0.00,weatherlink.com 1.10,2013-06-02 12:15:00,
2013-06-02 08:30:00,71.5,68.0,29.99,West,262,2.0,5.0,88,0.00,,,0.00,weatherlink.com 1.10,2013-06-02 12:30:00,
2013-06-02 08:45:00,71.3,68.0,29.99,ESE,106,3.0,8.0,88,0.00,,,0.00,weatherlink.com 1.10,2013-06-02 12:45:00,
2013-06-02 09:00:00,71.7,68.0,29.99,ESE,116,4.0,5.0,88,0.00,,,0.00,weatherlink.com 1.10,2013-06-02 13:00:00,
2013-06-02 09:15:00,71.9,68.0,29.99,ESE,113,0.0,6.0,88,0.00,,,0.00,weatherlink.com 1.10,2013-06-02 13:15:00,
2013-06-02 09:30:00,72.4,69.0,29.99,ESE,118,0.0,4.0,88,0.00,,,0.00,weatherlink.com 1.10,2013-06-02 13:30:00,
2013-06-02 09:45:00,73.5,69.0,29.98,ESE,105,3.0,5.0,86,0.00,,,0.00,weatherlink.com 1.10,2013-06-02 13:45:00,
2013-06-02 10:00:00,74.2,69.0,29.97,East,93,2.0,5.0,83,0.00,,,0.00,weatherlink.com 1.10,2013-06-02 14:00:00,
2013-06-02 10:15:00,74.5,68.0,29.98,SSE,147,3.0,8.0,81,0.00,,,0.00,weatherlink.com 1.10,2013-06-02 14:15:00,
2013-06-02 10:30:00,74.9,69.0,29.98,SSE,167,4.0,7.0,81,0.00,,,0.00,weatherlink.com 1.10,2013-06-02 14:30:00,
2013-06-02 10:45:00,75.5,69.0,29.98,SSE,155,0.0,4.0,81,0.00,,,0.00,weatherlink.com 1.10,2013-06-02 14:45:00,
2013-06-02 11:00:00,76.6,70.0,29.98,SE,128,2.0,7.0,80,0.00,,,0.00,weatherlink.com 1.10,2013-06-02 15:00:00,
2013-06-02 11:15:00,76.6,69.0,29.98,ESE,115,1.0,5.0,78,0.00,,,0.00,weatherlink.com 1.10,2013-06-02 15:15:00,
2013-06-02 11:30:00,77.7,69.0,29.98,ESE,107,1.0,8.0,75,0.00,,,0.00,weatherlink.com 1.10,2013-06-02 15:30:00,
2013-06-02 11:45:00,78.0,70.0,29.98,ESE,119,1.0,7.0,75,0.00,,,0.00,weatherlink.com 1.10,2013-06-02 15:45:00,
2013-06-02 12:00:00,79.6,70.0,29.98,SSE,161,2.0,5.0,73,0.00,,,0.00,weatherlink.com 1.10,2013-06-02 16:00:00,
2013-06-02 12:15:00,79.3,70.0,29.98,ESE,109,1.0,4.0,72,0.00,,,0.00,weatherlink.com 1.10,2013-06-02 16:15:00,
2013-06-02 12:30:00,80.9,71.0,29.98,SE,135,0.0,6.0,71,0.00,,,0.00,weatherlink.com 1.10,2013-06-02 16:30:00,
2013-06-02 12:45:00,81.9,70.0,29.98,ESE,107,3.0,8.0,67,0.00,,,0.00,weatherlink.com 1.10,2013-06-02 16:45:00,
2013-06-02 13:00:00,82.8,70.0,29.98,SE,140,1.0,7.0,65,0.00,,,0.00,weatherlink.com 1.10,2013-06-02 17:00:00,
2013-06-02 13:15:00,82.7,69.0,29.97,SSW,200,3.0,9.0,63,0.00,,,0.00,weatherlink.com 1.10,2013-06-02 17:15:00,
2013-06-02 13:30:00,82.1,71.0,29.97,ESE,117,4.0,6.0,68,0.00,,,0.00,weatherlink.com 1.10,2013-06-02 17:30:00,
2013-06-02 13:45:00,83.7,71.0,29.96,SSW,205,1.0,5.0,66,0.00,,,0.00,weatherlink.com 1.10,2013-06-02 17:45:00,
2013-06-02 14:00:00,83.9,69.0,29.96,ESE,115,3.0,7.0,61,0.00,,,0.00,weatherlink.com 1.10,2013-06-02 18:00:00,
2013-06-02 14:15:00,84.6,69.0,29.95,ESE,113,1.0,8.0,59,0.00,,,0.00,weatherlink.com 1.10,2013-06-02 18:15:00,
2013-06-02 14:30:00,84.7,68.0,29.95,ESE,113,0.0,8.0,58,0.00,,,0.00,weatherlink.com 1.10,2013-06-02 18:30:00,
2013-06-02 14:45:00,85.1,70.0,29.94,ESE,111,2.0,10.0,60,0.00,,,0.00,weatherlink.com 1.10,2013-06-02 18:45:00,
2013-06-02 15:01:00,85.3,68.0,29.92,ESE,109,4.0,5.0,56,0.00,,,0.00,weatherlink.com 1.10,2013-06-02 19:01:00,
2013-06-02 15:18:00,86.2,68.0,29.91,ESE,121,4.0,7.0,54,0.00,,,0.00,weatherlink.com 1.10,2013-06-02 19:18:00,
2013-06-02 15:31:00,85.2,67.0,29.91,East,90,2.0,4.0,55,0.00,,,0.00,weatherlink.com 1.10,2013-06-02 19:31:00,
2013-06-02 15:46:00,83.4,67.0,29.90,ESE,115,3.0,5.0,58,0.00,,,0.00,weatherlink.com 1.10,2013-06-02 19:46:00,
2013-06-02 16:01:00,82.8,68.0,29.89,ESE,113,2.0,3.0,61,0.00,,,0.00,weatherlink.com 1.10,2013-06-02 20:01:00,
2013-06-02 16:16:00,83.2,69.0,29.89,ESE,121,1.0,4.0,62,0.00,,,0.00,weatherlink.com 1.10,2013-06-02 20:16:00,
2013-06-02 16:31:00,83.8,70.0,29.89,ESE,121,3.0,4.0,64,0.00,,,0.00,weatherlink.com 1.10,2013-06-02 20:31:00,
2013-06-02 16:46:00,85.5,69.0,29.88,ESE,103,2.0,5.0,59,0.00,,,0.00,weatherlink.com 1.10,2013-06-02 20:46:00,
2013-06-02 17:01:00,85.2,70.0,29.87,East,85,1.0,5.0,61,0.00,,,0.00,weatherlink.com 1.10,2013-06-02 21:01:00,
2013-06-02 17:16:00,84.5,69.0,29.87,ESE,117,1.0,4.0,60,0.00,,,0.00,weatherlink.com 1.10,2013-06-02 21:16:00,
2013-06-02 17:31:00,84.6,70.0,29.88,SE,128,1.0,4.0,61,0.00,,,0.00,weatherlink.com 1.10,2013-06-02 21:31:00,
2013-06-02 17:46:00,84.3,70.0,29.87,ESE,117,0.0,4.0,62,0.00,,,0.00,weatherlink.com 1.10,2013-06-02 21:46:00,
2013-06-02 18:01:00,83.8,70.0,29.87,SSW,200,0.0,4.0,64,0.00,,,0.00,weatherlink.com 1.10,2013-06-02 22:01:00,
2013-06-02 18:16:00,83.0,70.0,29.87,SE,128,2.0,2.0,65,0.00,,,0.00,weatherlink.com 1.10,2013-06-02 22:16:00,
2013-06-02 18:31:00,82.2,71.0,29.87,SE,128,0.0,1.0,68,0.00,,,0.00,weatherlink.com 1.10,2013-06-02 22:31:00,
2013-06-02 18:46:00,81.5,71.0,29.87,SE,128,0.0,0.0,70,0.00,,,0.00,weatherlink.com 1.10,2013-06-02 22:46:00,
2013-06-02 19:01:00,80.8,72.0,29.88,SE,128,0.0,0.0,74,0.00,,,0.00,weatherlink.com 1.10,2013-06-02 23:01:00,
2013-06-02 19:16:00,80.0,71.0,29.88,SE,128,0.0,1.0,75,0.00,,,0.00,weatherlink.com 1.10,2013-06-02 23:16:00,
2013-06-02 19:31:00,79.3,72.0,29.88,SE,128,0.0,0.0,77,0.00,,,0.00,weatherlink.com 1.10,2013-06-02 23:31:00,
2013-06-02 19:46:00,78.7,71.0,29.88,SE,128,0.0,0.0,78,0.00,,,0.00,weatherlink.com 1.10,2013-06-02 23:46:00,
2013-06-02 20:01:00,78.2,72.0,29.87,SE,128,0.0,0.0,80,0.00,,,0.00,weatherlink.com 1.10,2013-06-03 00:01:00,
2013-06-02 20:16:00,77.6,72.0,29.86,SE,128,0.0,0.0,82,0.00,,,0.00,weatherlink.com 1.10,2013-06-03 00:16:00,
2013-06-02 20:31:00,77.0,73.0,29.87,SE,128,1.0,2.0,86,0.00,,,0.00,weatherlink.com 1.10,2013-06-03 00:31:00,
2013-06-02 20:46:00,73.4,71.0,29.87,WNW,294,2.0,5.0,91,0.00,,,0.00,weatherlink.com 1.10,2013-06-03 00:46:00,
2013-06-02 21:01:00,71.8,70.0,29.89,ENE,67,1.0,7.0,94,0.00,,,0.00,weatherlink.com 1.10,2013-06-03 01:01:00,
2013-06-02 21:16:00,70.9,70.0,29.90,ENE,61,2.0,2.0,95,0.00,,,0.00,weatherlink.com 1.10,2013-06-03 01:16:00,
2013-06-02 21:31:00,70.7,70.0,29.91,SE,126,0.0,4.0,96,0.00,,,0.00,weatherlink.com 1.10,2013-06-03 01:31:00,
2013-06-02 21:46:00,70.2,69.0,29.91,SW,221,1.0,5.0,96,0.00,,,0.00,weatherlink.com 1.10,2013-06-03 01:46:00,
2013-06-02 22:01:00,70.3,69.0,29.90,SE,144,0.0,3.0,97,0.00,,,0.00,weatherlink.com 1.10,2013-06-03 02:01:00,
2013-06-02 22:16:00,70.0,69.0,29.91,SE,144,0.0,0.0,97,0.00,,,0.00,weatherlink.com 1.10,2013-06-03 02:16:00,
2013-06-02 22:31:00,69.9,69.0,29.91,SE,144,0.0,1.0,97,0.00,,,0.00,weatherlink.com 1.10,2013-06-03 02:31:00,
2013-06-02 22:46:00,69.5,69.0,29.91,SE,144,0.0,0.0,97,0.00,,,0.00,weatherlink.com 1.10,2013-06-03 02:46:00,
2013-06-02 23:01:00,69.3,69.0,29.91,SE,144,0.0,0.0,97,0.00,,,0.00,weatherlink.com 1.10,2013-06-03 03:01:00,
2013-06-02 23:16:00,69.1,68.0,29.92,SE,144,0.0,3.0,97,0.00,,,0.00,weatherlink.com 1.10,2013-06-03 03:16:00,
2013-06-02 23:31:00,68.6,68.0,29.91,SE,144,0.0,0.0,97,0.00,,,0.00,weatherlink.com 1.10,2013-06-03 03:31:00,
2013-06-02 23:46:00,68.4,68.0,29.91,SE,144,0.0,1.0,97,0.00,,,0.00,weatherlink.com 1.10,2013-06-03 03:46:00,